WetterOnline ( https://www.wetteronline.de )

Wetter aktuell Bad Lauterberg

Aktuelles Wetter: Braunlage (609m)

6-stündlich | Neueste Meldungen
Ortszeit Temperatur Wetter
Do, 18.04. 14:00 5.7° C bewölkt
Do, 18.04. 8:00 2.1° C bedeckt
Do, 18.04. 2:00 1.4° C bedeckt
Mi, 17.04. 20:00 3.0° C bedeckt
Mi, 17.04. 14:00 4.1° C bedeckt
Mi, 17.04. 8:00 2.5° C bewölkt
Mi, 17.04. 2:00 1.4° C leicht bewölkt
Di, 16.04. 20:00 4.4° C bedeckt
Ortszeit Temperatur Wetter
Do, 18.04. 18:30 6.0° C bewölkt
Do, 18.04. 18:20 6.0° C bewölkt
Do, 18.04. 18:10 7.0° C bewölkt
Do, 18.04. 18:00 7.5° C bewölkt
Do, 18.04. 17:50 7.5° C bewölkt
Do, 18.04. 17:40 8.3° C bewölkt
Do, 18.04. 17:30 6.0° C wolkig
Do, 18.04. 17:00 5.5° C bewölkt
Do, 18.04. 16:30 6.7° C bewölkt
Do, 18.04. 16:00 6.1° C bedeckt
Do, 18.04. 15:30 6.3° C wolkig
Ortszeit Relative Feuchte Sichtweite
Do, 18.04. 14:00 56% 55 km
Do, 18.04. 8:00 88% 29 km
Do, 18.04. 2:00 89% 30 km
Mi, 17.04. 20:00 78% >70 km
Mi, 17.04. 14:00 75% >70 km
Mi, 17.04. 8:00 91% 24 km
Mi, 17.04. 2:00 90% 30 km
Di, 16.04. 20:00 81% >70 km
Ortszeit Relative Feuchte Sichtweite
Do, 18.04. 18:30 63% 60 km
Do, 18.04. 18:20 63% -
Do, 18.04. 18:10 56% -
Do, 18.04. 18:00 49% 60 km
Do, 18.04. 17:50 49% -
Do, 18.04. 17:40 51% -
Do, 18.04. 17:30 60% >70 km
Do, 18.04. 17:00 62% 65 km
Do, 18.04. 16:30 58% 65 km
Do, 18.04. 16:00 56% >70 km
Do, 18.04. 15:30 55% >70 km
Ortszeit Niederschlagsmenge Niederschlagsart
Do, 18.04. 14:00 0.1 l/m2 in 6 Std. Regen
Do, 18.04. 8:00 0.1 l/m2 in 12 Std. Sprühregen
Do, 18.04. 2:00 0.1 l/m2 in 6 Std. Sprühregen
Mi, 17.04. 20:00 0.5 l/m2 in 12 Std. -
Mi, 17.04. 14:00 0.5 l/m2 in 6 Std. Regen
Mi, 17.04. 8:00 2 l/m2 in 12 Std. Schnee, Regen
Mi, 17.04. 2:00 1 l/m2 in 6 Std. Regen
Di, 16.04. 20:00 3 l/m2 in 12 Std. Regen
Ortszeit Niederschlagsmenge Niederschlagsart
Do, 18.04. 18:30 0.0 l/m2 in 30 Min -
Do, 18.04. 18:20 keine Meldung -
Do, 18.04. 18:10 keine Meldung -
Do, 18.04. 18:00 <0.05 l/m2 in 1 Std. Regen
Do, 18.04. 17:50 keine Meldung -
Do, 18.04. 17:40 keine Meldung -
Do, 18.04. 17:30 <0.05 l/m2 in 30 Min Schneeregen
Do, 18.04. 17:00 <0.05 l/m2 in 1 Std. Regen
Do, 18.04. 16:30 0.0 l/m2 in 30 Min -
Do, 18.04. 16:00 0.0 l/m2 in 1 Std. -
Do, 18.04. 15:30 0.0 l/m2 in 30 Min -
Ortszeit Stärke Spitze Richtung
km/h Bft. km/h Grad Sektor
Do, 18.04. 14:00 17 3 28 330° NW
Do, 18.04. 8:00 4 1 18 20° N
Do, 18.04. 2:00 6 1 17 100° O
Mi, 17.04. 20:00 6 1 30 280° W
Mi, 17.04. 14:00 7 2 29 300° NW
Mi, 17.04. 8:00 11 2 22 310° NW
Mi, 17.04. 2:00 9 2 31 340° N
Di, 16.04. 20:00 13 3 33 330° NW
Ortszeit Stärke Spitze Richtung
km/h Bft. km/h Grad Sektor
Do, 18.04. 18:30 15 3 30 280° W
Do, 18.04. 18:20 15 3 - 280° W
Do, 18.04. 18:10 14 3 - 270° W
Do, 18.04. 18:00 14 3 29 290° W
Do, 18.04. 17:50 14 3 - 290° W
Do, 18.04. 17:40 11 2 - 300° NW
Do, 18.04. 17:30 13 3 26 310° NW
Do, 18.04. 17:00 13 3 24 320° NW
Do, 18.04. 16:30 11 2 25 330° NW
Do, 18.04. 16:00 14 3 32 310° NW
Do, 18.04. 15:30 14 3 29 310° NW
Ortszeit Untergrenze Bedeckung Gattung
total tief tief mittel hoch
Do, 18.04. 14:00 1380 m 7/8 7/8 - - -
Do, 18.04. 8:00 480 m 8/8 8/8 - - -
Do, 18.04. 2:00 450 m 8/8 8/8 - - -
Mi, 17.04. 20:00 1800 m 8/8 8/8 - - -
Mi, 17.04. 14:00 510 m 8/8 8/8 - - -
Mi, 17.04. 8:00 1500 m 7/8 7/8 - - -
Mi, 17.04. 2:00 2400 m 3/8 3/8 - - -
Di, 16.04. 20:00 4500 m 8/8 8/8 - - -
Ortszeit Bedeckungsgrad in Achtel und Wolkenuntergrenze
Do, 18.04. 18:30 4(1170m) 5(1470m) 7(1800m)
Do, 18.04. 18:20 4(1170m) 5(1470m) 7(1800m)
Do, 18.04. 18:10 7
Do, 18.04. 18:00 4(1290m) 6(1800m) 7(6600m)
Do, 18.04. 17:50 4(1290m) 6(1800m) 7(6600m)
Do, 18.04. 17:40 7
Do, 18.04. 17:30 2(1320m) 6(1800m)
Do, 18.04. 17:00 3(1350m) 6(1500m) 7(6900m)
Do, 18.04. 16:30 4(1110m) 7(1800m)
Do, 18.04. 16:00 8(1500m)
Do, 18.04. 15:30 6(1500m)
Ortszeit Luftdruck NN (hPa) Tendenz (hPa in 3 Std.)
Do, 18.04. 14:00 1017 + 0,5
Do, 18.04. 8:00 1015 + 1,9
Do, 18.04. 2:00 1013 + 1,0
Mi, 17.04. 20:00 1010 + 0,8
Mi, 17.04. 14:00 1009 + 0,2
Mi, 17.04. 8:00 1008 + 0,8
Mi, 17.04. 2:00 1008 + 1,6
Di, 16.04. 20:00 1003 + 2,1
Ortszeit Luftdruck NN (hPa) Tendenz (hPa in 3 Std.)
Do, 18.04. 18:30 1017 - 0,1
Do, 18.04. 18:20 1017 keine Meldung
Do, 18.04. 18:10 1016 keine Meldung
Do, 18.04. 18:00 1016 - 0,4
Do, 18.04. 17:50 1016 keine Meldung
Do, 18.04. 17:40 1016 keine Meldung
Do, 18.04. 17:30 1016 - 0,3
Do, 18.04. 17:00 1017 - 0,2
Do, 18.04. 16:30 1016 - 0,1
Do, 18.04. 16:00 1017 + 0,1
Do, 18.04. 15:30 1017 + 0,1
Ortszeit Schneehöhe (cm)
Do, 18.04. 14:00 0
Do, 18.04. 8:00 0
Do, 18.04. 2:00 0
Mi, 17.04. 20:00 0
Mi, 17.04. 14:00 0
Mi, 17.04. 8:00 0
Mi, 17.04. 2:00 0
Di, 16.04. 20:00 0
Ortszeit Schneehöhe (cm)
Do, 18.04. 18:30 0
Do, 18.04. 18:20 0
Do, 18.04. 18:10 -
Do, 18.04. 18:00 0
Do, 18.04. 17:50 0
Do, 18.04. 17:40 -
Do, 18.04. 17:30 0
Do, 18.04. 17:00 0
Do, 18.04. 16:30 0
Do, 18.04. 16:00 0
Do, 18.04. 15:30 0
Link zu dieser Seite / Seite empfehlen

Das Wetter in ...